Time;durP1;ratioP1;P1;durP2;ratioP2;P2;SDS_P1;SDS_P2;PMS_P1;PMS_P2;Temp;Humidity;BMP_temperature;BMP_pressure;BME280_temperature;BME280_humidity;BME280_pressure;Samples;Min_cycle;Max_cycle;Signal;HPM_P1;HPM_P2
2022/04/06 00:00:06;;;;;;;303.65;277.52;;;;;;;17.81;30.95;93087.31;5027599;28;20111;-68
2022/04/06 00:02:52;;;;;;;293.40;267.70;;;;;;;17.83;31.30;93086.84;5019665;28;20700;-68
2022/04/06 00:05:17;;;;;;;299.67;274.02;;;;;;;17.83;31.23;93086.84;5023964;28;20057;-68
2022/04/06 00:07:44;;;;;;;305.00;278.55;;;;;;;17.83;31.38;93086.84;5023826;28;20060;-68
2022/04/06 00:10:12;;;;;;;325.05;297.13;;;;;;;17.83;31.22;93084.13;5026773;28;20516;-68
2022/04/06 00:12:38;;;;;;;329.38;301.25;;;;;;;17.81;31.14;93076.50;5027651;28;20489;-68
2022/04/06 00:15:07;;;;;;;311.98;284.50;;;;;;;17.81;31.23;93081.16;5025177;28;20469;-68
2022/04/06 00:17:33;;;;;;;323.40;295.50;;;;;;;17.82;31.29;93074.53;5021778;28;20124;-68
2022/04/06 00:19:59;;;;;;;292.23;266.70;;;;;;;17.82;31.28;93074.53;5022345;28;20835;-68
2022/04/06 00:22:24;;;;;;;299.63;273.38;;;;;;;17.83;31.16;93067.91;5019169;28;20112;-68
2022/04/06 00:24:51;;;;;;;294.23;268.73;;;;;;;17.81;31.27;93065.69;5037488;28;20749;-68
2022/04/06 00:27:18;;;;;;;291.63;265.75;;;;;;;17.81;31.53;93067.63;5026191;28;20071;-68
2022/04/06 00:29:43;;;;;;;292.52;266.75;;;;;;;17.82;31.29;93066.44;5023166;28;20123;-68
2022/04/06 00:32:09;;;;;;;296.02;270.17;;;;;;;17.82;31.42;93066.44;5024777;28;20113;-68
2022/04/06 00:37:19;;;;;;;293.70;267.60;;;;;;;17.81;31.35;93067.63;5024536;28;20057;-68
2022/04/06 00:39:45;;;;;;;295.58;269.65;;;;;;;17.80;31.24;93064.19;5024219;28;20042;-68
2022/04/06 00:42:10;;;;;;;298.38;271.50;;;;;;;17.82;31.39;93061.75;5023810;28;20678;-68
2022/04/06 00:44:37;;;;;;;297.00;271.45;;;;;;;17.82;31.45;93058.31;5026881;28;20119;-68
2022/04/06 00:47:04;;;;;;;294.52;268.80;;;;;;;17.81;31.45;93057.56;5027294;28;20072;-68
2022/04/06 00:49:31;;;;;;;300.90;274.83;;;;;;;17.81;31.63;93051.41;5020379;28;20356;-68
2022/04/06 00:51:58;;;;;;;292.08;266.83;;;;;;;17.81;31.58;93051.41;5027626;28;20133;-68
2022/04/06 00:54:24;;;;;;;290.83;265.20;;;;;;;17.81;31.42;93054.88;5025244;28;20584;-68
2022/04/06 00:56:50;;;;;;;286.63;261.20;;;;;;;17.81;31.64;93044.03;5024500;28;20037;-68
2022/04/06 00:59:17;;;;;;;295.95;269.90;;;;;;;17.80;31.43;93047.97;5023496;28;20057;-68
2022/04/06 01:01:47;;;;;;;288.52;262.92;;;;;;;17.79;31.40;93049.19;5024259;28;20045;-68
2022/04/06 01:04:15;;;;;;;297.23;271.38;;;;;;;17.78;31.60;93050.41;5025587;28;20490;-68
2022/04/06 01:06:41;;;;;;;291.77;266.05;;;;;;;17.77;31.74;93046.22;5023203;28;20111;-68
2022/04/06 01:09:07;;;;;;;303.70;276.30;;;;;;;17.75;31.58;93035.88;5022337;28;20045;-68
2022/04/06 01:11:33;;;;;;;299.15;273.25;;;;;;;17.76;31.68;93036.63;5021661;28;20049;-68
2022/04/06 01:13:59;;;;;;;292.92;267.05;;;;;;;17.75;31.57;93041.28;5024425;28;20146;-68
2022/04/06 01:16:24;;;;;;;295.92;270.23;;;;;;;17.75;31.48;93040.53;5023772;28;20049;-68
2022/04/06 01:18:50;;;;;;;284.05;258.77;;;;;;;17.74;31.42;93028.97;5024674;28;20039;-68
2022/04/06 01:21:15;;;;;;;301.20;274.33;;;;;;;17.75;31.60;93037.84;5019161;28;20053;-68
2022/04/06 01:23:42;;;;;;;282.73;257.35;;;;;;;17.74;31.63;93030.94;5025000;28;20053;-68
2022/04/06 01:26:09;;;;;;;295.55;269.67;;;;;;;17.74;31.64;93030.94;5023286;28;20041;-68
2022/04/06 01:28:36;;;;;;;292.55;267.23;;;;;;;17.74;31.65;93028.22;5023492;28;20135;-68
2022/04/06 01:31:02;;;;;;;300.13;273.60;;;;;;;17.73;31.51;93026.75;5023325;28;20041;-68
2022/04/06 01:33:28;;;;;;;294.05;267.95;;;;;;;17.73;31.65;93026.75;5024862;28;20057;-68
2022/04/06 01:35:55;;;;;;;294.27;268.38;;;;;;;17.72;31.78;93020.59;5021274;28;20135;-68
2022/04/06 01:38:21;;;;;;;300.10;273.70;;;;;;;17.71;31.68;93016.41;5022880;28;20057;-68
2022/04/06 01:40:46;;;;;;;284.95;259.38;;;;;;;17.71;31.64;93018.38;5020856;28;20049;-68
2022/04/06 01:43:12;;;;;;;297.02;270.98;;;;;;;17.72;31.77;93017.88;5014432;28;20136;-68
2022/04/06 01:45:38;;;;;;;285.83;260.10;;;;;;;17.72;31.74;93019.84;5024484;28;20745;-68
2022/04/06 01:48:04;;;;;;;284.13;258.90;;;;;;;17.72;31.81;93015.19;5019718;28;20053;-68
2022/04/06 01:53:14;;;;;;;299.58;273.00;;;;;;;17.72;31.83;93009.03;5026424;28;20068;-68
2022/04/06 01:55:40;;;;;;;291.27;265.67;;;;;;;17.72;31.63;93020.59;5023724;28;20660;-68
2022/04/06 01:58:06;;;;;;;289.10;263.25;;;;;;;17.72;31.69;93006.34;5024020;28;20052;-68
2022/04/06 02:00:31;;;;;;;287.13;261.75;;;;;;;17.73;31.59;93015.94;5024457;28;20048;-68
2022/04/06 02:02:57;;;;;;;294.52;268.38;;;;;;;17.73;31.56;93005.13;5022056;28;20410;-68
2022/04/06 02:05:22;;;;;;;295.05;268.95;;;;;;;17.74;31.69;93010.03;5022259;28;20524;-68
2022/04/06 02:07:48;;;;;;;285.77;260.02;;;;;;;17.73;31.86;93008.56;5025194;28;20503;-68
2022/04/06 02:10:15;;;;;;;294.95;268.88;;;;;;;17.71;31.74;93002.88;5021498;28;20045;-68
2022/04/06 02:12:42;;;;;;;298.15;272.30;;;;;;;17.72;31.64;93004.38;5024128;28;20090;-68
2022/04/06 02:15:13;;;;;;;303.95;276.52;;;;;;;17.71;31.76;93005.59;5020694;28;20053;-68
2022/04/06 02:17:39;;;;;;;282.77;257.40;;;;;;;17.74;31.65;93006.59;5022986;28;20099;-68
2022/04/06 02:20:05;;;;;;;301.33;274.83;;;;;;;17.74;31.58;92995.78;5023061;28;20041;-68
2022/04/06 02:22:30;;;;;;;294.85;269.05;;;;;;;17.73;31.72;92999.69;5021117;28;20045;-68
2022/04/06 02:24:56;;;;;;;314.48;286.45;;;;;;;17.74;31.70;93001.19;5020072;28;20083;-68
2022/04/06 02:27:22;;;;;;;292.25;266.27;;;;;;;17.73;31.69;92994.28;5027165;28;20037;-68
2022/04/06 02:29:48;;;;;;;294.27;268.08;;;;;;;17.72;31.77;93001.66;5027378;28;20119;-68
2022/04/06 02:32:14;;;;;;;296.70;270.52;;;;;;;17.72;31.70;92993.56;5020308;28;20045;-68
2022/04/06 02:34:40;;;;;;;293.88;267.85;;;;;;;17.73;31.70;92995.03;5023625;28;20069;-67
2022/04/06 02:37:07;;;;;;;287.73;261.88;;;;;;;17.74;31.67;92996.53;5019208;28;20045;-68
2022/04/06 02:39:34;;;;;;;294.10;268.30;;;;;;;17.74;31.86;92993.06;5023290;28;20098;-68
2022/04/06 02:41:59;;;;;;;289.55;263.55;;;;;;;17.72;31.94;92996.25;5023667;28;20056;-68
2022/04/06 02:44:25;;;;;;;286.55;260.88;;;;;;;17.73;31.89;93003.16;5023735;28;20065;-68
2022/04/06 02:46:50;;;;;;;287.35;261.67;;;;;;;17.73;31.86;93005.13;5027638;28;20530;-68
2022/04/06 02:49:17;;;;;;;299.23;272.88;;;;;;;17.71;31.71;93000.19;5027446;28;20045;-68
2022/04/06 02:51:43;;;;;;;290.60;264.73;;;;;;;17.72;31.96;92998.97;5027171;28;20175;-68
2022/04/06 02:54:09;;;;;;;305.45;278.63;;;;;;;17.72;31.89;92995.50;5028122;28;20433;-68
2022/04/06 02:56:34;;;;;;;299.33;272.48;;;;;;;17.71;32.00;92983.22;5027710;28;20050;-68
2022/04/06 02:59:01;;;;;;;303.50;276.98;;;;;;;17.71;31.85;92989.38;5028032;28;20506;-68
2022/04/06 03:01:27;;;;;;;346.60;317.13;;;;;;;17.70;31.82;92979.75;5024734;28;20053;-68
2022/04/06 03:03:52;;;;;;;298.92;272.55;;;;;;;17.71;31.84;92991.31;5026149;28;20045;-68
2022/04/06 03:06:18;;;;;;;289.13;263.25;;;;;;;17.70;31.98;92979.75;5026348;28;20046;-68
2022/04/06 03:08:44;;;;;;;289.45;263.45;;;;;;;17.70;31.89;92979.75;5021940;28;20059;-68
2022/04/06 03:11:10;;;;;;;295.70;269.80;;;;;;;17.70;31.92;92981.72;5026928;28;20111;-68
2022/04/06 03:13:36;;;;;;;295.77;269.85;;;;;;;17.70;31.98;92970.91;5026341;28;20045;-68
2022/04/06 03:16:01;;;;;;;290.63;264.73;;;;;;;17.70;31.97;92973.63;5024839;28;20073;-68
2022/04/06 03:18:27;;;;;;;285.52;259.85;;;;;;;17.69;31.95;92972.88;5024620;28;20474;-68
2022/04/06 03:20:52;;;;;;;291.30;265.42;;;;;;;17.70;32.07;92968.94;5021233;28;20037;-68
2022/04/06 03:23:18;;;;;;;290.52;264.63;;;;;;;17.68;32.04;92957.88;5021825;28;20045;-68
2022/04/06 03:25:44;;;;;;;295.20;269.20;;;;;;;17.68;31.97;92949.75;5024358;28;20132;-68
2022/04/06 03:28:10;;;;;;;288.27;262.63;;;;;;;17.67;31.74;92959.09;5024075;28;20041;-68
2022/04/06 03:30:36;;;;;;;299.92;273.58;;;;;;;17.66;32.05;92954.91;5023370;28;20041;-68
2022/04/06 03:33:02;;;;;;;288.45;263.02;;;;;;;17.67;32.04;92950.97;5021796;28;20719;-68
2022/04/06 03:35:28;;;;;;;282.60;257.13;;;;;;;17.67;32.02;92964.50;5026572;28;20167;-68
2022/04/06 03:37:53;;;;;;;299.58;273.40;;;;;;;17.66;32.01;92954.16;5025641;28;20034;-68
2022/04/06 03:40:20;;;;;;;292.15;266.23;;;;;;;17.66;31.97;92954.91;5027000;28;20477;-68
2022/04/06 03:42:45;;;;;;;287.70;261.85;;;;;;;17.65;32.06;92947.22;5024873;28;20140;-67
2022/04/06 03:45:11;;;;;;;288.48;263.02;;;;;;;17.65;31.88;92945.31;5026731;28;20084;-68
2022/04/06 03:47:38;;;;;;;298.42;272.05;;;;;;;17.66;31.94;92949.50;5027058;28;20057;-68
2022/04/06 03:50:07;;;;;;;291.00;265.25;;;;;;;17.67;31.97;92950.97;5026889;28;20064;-68
2022/04/06 03:52:32;;;;;;;283.50;258.13;;;;;;;17.68;32.05;92938.94;5027125;28;20099;-68
2022/04/06 03:54:58;;;;;;;309.38;281.20;;;;;;;17.69;31.92;92942.38;5026713;28;20045;-68
2022/04/06 03:57:25;;;;;;;300.80;274.02;;;;;;;17.71;32.00;92939.94;5024546;28;20061;-68
2022/04/06 03:59:51;;;;;;;291.98;265.98;;;;;;;17.72;32.05;92927.91;5025326;28;20060;-68
2022/04/06 04:02:17;;;;;;;302.92;275.92;;;;;;;17.74;32.02;92926.22;5024124;28;20061;-68
2022/04/06 04:04:43;;;;;;;294.00;267.95;;;;;;;17.74;32.13;92926.22;5017226;28;20041;-69
2022/04/06 04:07:08;;;;;;;285.60;260.10;;;;;;;17.77;32.22;92932.63;5025027;28;20122;-68
2022/04/06 04:09:35;;;;;;;296.90;271.00;;;;;;;17.77;32.25;92932.63;5022619;28;20122;-70
2022/04/06 04:12:02;;;;;;;292.13;266.42;;;;;;;17.80;31.97;92939.03;5026528;28;20038;-69
2022/04/06 04:14:31;;;;;;;302.30;275.67;;;;;;;17.81;31.96;92933.16;5021943;28;20401;-70
2022/04/06 04:17:01;;;;;;;302.75;276.70;;;;;;;17.84;32.05;92932.22;5021245;28;20069;-70
2022/04/06 04:19:26;;;;;;;297.70;271.88;;;;;;;17.86;31.85;92929.03;5024613;28;20063;-68
2022/04/06 04:21:52;;;;;;;297.00;270.83;;;;;;;17.87;31.95;92933.22;5024202;28;20486;-68
2022/04/06 04:24:17;;;;;;;287.45;262.23;;;;;;;17.88;32.10;92929.28;5028855;28;20076;-67
2022/04/06 04:26:43;;;;;;;295.90;270.17;;;;;;;17.92;31.97;92935.22;5023340;28;20191;-68
2022/04/06 04:29:08;;;;;;;315.85;288.60;;;;;;;17.92;32.06;92924.41;5020481;28;20046;-68
2022/04/06 04:31:34;;;;;;;285.65;260.30;;;;;;;17.95;32.00;92929.59;5025168;28;20049;-68
2022/04/06 04:34:00;;;;;;;294.95;269.38;;;;;;;17.95;31.97;92921.50;5022297;28;20459;-68
2022/04/06 04:36:26;;;;;;;302.30;276.20;;;;;;;17.96;32.03;92919.53;5027206;28;20049;-68
2022/04/06 04:38:52;;;;;;;301.65;275.90;;;;;;;17.99;31.96;92916.59;5037305;28;20410;-68
2022/04/06 04:41:18;;;;;;;293.70;268.15;;;;;;;17.96;32.04;92912.16;5042216;28;20072;-68
2022/04/06 04:43:43;;;;;;;290.60;265.45;;;;;;;17.99;32.00;92922.00;5026444;28;20053;-68
2022/04/06 04:46:09;;;;;;;297.20;271.77;;;;;;;18.03;31.92;92913.69;5028483;28;20100;-68
2022/04/06 04:48:35;;;;;;;296.55;271.10;;;;;;;18.04;32.30;92910.50;5027053;28;20413;-68
2022/04/06 04:51:01;;;;;;;295.63;270.23;;;;;;;18.06;32.02;92908.06;5022738;28;20108;-68
2022/04/06 04:53:26;;;;;;;300.35;274.70;;;;;;;18.07;32.33;92908.78;5025897;28;20126;-68
2022/04/06 04:55:53;;;;;;;296.05;270.75;;;;;;;18.08;32.27;92913.00;5042728;28;20064;-68
2022/04/06 04:58:19;;;;;;;296.90;271.05;;;;;;;18.10;32.46;92916.69;5021593;28;20397;-68
2022/04/06 05:00:46;;;;;;;306.95;280.77;;;;;;;18.10;32.24;92911.28;5026130;28;20053;-68
2022/04/06 05:03:12;;;;;;;297.60;272.05;;;;;;;18.08;32.27;92913.72;5027451;28;20764;-68
2022/04/06 05:05:44;;;;;;;301.33;275.73;;;;;;;18.08;32.24;92916.44;5025944;28;20095;-68
2022/04/06 05:08:10;;;;;;;306.10;280.30;;;;;;;18.10;32.15;92919.41;5022393;28;20053;-68
2022/04/06 05:10:36;;;;;;;305.67;279.73;;;;;;;18.12;31.99;92918.19;5026798;28;20681;-69
2022/04/06 05:13:03;;;;;;;305.20;279.45;;;;;;;18.12;32.23;92916.22;5025064;28;20037;-67
2022/04/06 05:15:29;;;;;;;304.15;278.45;;;;;;;18.15;32.06;92920.66;5025952;28;20126;-69
2022/04/06 05:17:55;;;;;;;314.92;288.23;;;;;;;18.16;31.97;92910.59;5024979;28;20107;-69
2022/04/06 05:20:21;;;;;;;313.48;286.83;;;;;;;18.17;31.88;92912.81;5030138;28;20056;-69
2022/04/06 05:22:46;;;;;;;314.92;288.58;;;;;;;18.18;32.03;92910.84;5027154;28;20056;-69
2022/04/06 05:25:12;;;;;;;307.17;281.05;;;;;;;18.16;32.03;92910.59;5024142;28;20048;-69
2022/04/06 05:27:48;;;;;;;313.90;287.50;;;;;;;18.16;32.03;92913.28;5027321;28;20406;-69
2022/04/06 05:30:16;;;;;;;304.17;277.70;;;;;;;18.15;32.02;92912.53;5024633;28;20041;-69
2022/04/06 05:32:43;;;;;;;313.85;287.42;;;;;;;18.17;32.15;92917.47;5020807;28;20420;-70
2022/04/06 05:35:09;;;;;;;317.42;290.60;;;;;;;18.16;32.05;92914.03;5027720;28;20570;-69
2022/04/06 05:37:39;;;;;;;307.48;281.40;;;;;;;18.16;32.09;92919.44;5023166;28;20477;-69
2022/04/06 05:40:07;;;;;;;361.63;332.02;;;;;;;18.17;31.97;92925.59;5026673;28;20042;-69
2022/04/06 05:42:32;;;;;;;305.98;280.40;;;;;;;18.18;31.95;92918.97;5027045;28;20111;-69
2022/04/06 05:44:58;;;;;;;302.98;276.45;;;;;;;18.18;32.02;92911.59;5026566;28;20053;-69
2022/04/06 05:47:24;;;;;;;296.77;271.60;;;;;;;18.20;32.01;92911.81;5027124;28;20044;-69
2022/04/06 05:49:50;;;;;;;296.70;271.75;;;;;;;18.24;31.94;92906.19;5017943;28;20053;-69
2022/04/06 05:52:15;;;;;;;290.40;265.42;;;;;;;18.25;32.21;92910.38;5013087;28;20098;-69
2022/04/06 05:54:41;;;;;;;302.50;276.95;;;;;;;18.24;32.21;92915.06;5022961;28;20046;-69
2022/04/06 05:57:06;;;;;;;298.08;272.83;;;;;;;18.24;32.32;92915.06;5016186;28;20120;-69
2022/04/06 05:59:32;;;;;;;299.52;274.08;;;;;;;18.24;32.07;92917.75;5025323;28;20038;-69
2022/04/06 06:01:57;;;;;;;296.55;270.83;;;;;;;18.23;32.13;92913.56;5036395;28;20114;-70
2022/04/06 06:04:23;;;;;;;297.00;271.90;;;;;;;18.23;32.27;92916.28;5015677;28;20063;-70
2022/04/06 06:06:49;;;;;;;303.42;277.42;;;;;;;18.22;31.70;92916.75;5021220;28;20387;-70
2022/04/06 06:09:15;;;;;;;300.65;275.25;;;;;;;18.21;32.01;92915.28;5025645;28;20045;-69
2022/04/06 06:11:41;;;;;;;304.38;278.48;;;;;;;18.20;32.03;92917.22;5032175;28;20038;-69
2022/04/06 06:14:07;;;;;;;309.85;283.67;;;;;;;18.21;32.20;92915.28;5024750;28;20052;-70
2022/04/06 06:16:33;;;;;;;296.75;271.50;;;;;;;18.21;32.21;92918.72;5009191;28;20041;-70
2022/04/06 06:18:59;;;;;;;304.67;278.92;;;;;;;18.21;32.15;92912.56;5028262;28;20045;-69
2022/04/06 06:21:27;;;;;;;310.63;284.73;;;;;;;18.22;32.08;92916.75;5019305;28;20052;-70
2022/04/06 06:23:56;;;;;;;295.75;270.73;;;;;;;18.23;31.86;92916.28;5026568;28;20075;-70
2022/04/06 06:26:21;;;;;;;307.00;281.73;;;;;;;18.23;32.12;92918.97;5033420;28;20486;-70
2022/04/06 06:28:47;;;;;;;300.80;275.33;;;;;;;18.24;32.12;92909.63;5029514;28;20041;-70
2022/04/06 06:31:12;;;;;;;306.60;280.80;;;;;;;18.23;32.07;92915.53;5027453;28;20556;-70
2022/04/06 06:33:38;;;;;;;300.83;275.35;;;;;;;18.23;31.90;92921.69;5027542;28;20563;-70
2022/04/06 06:36:04;;;;;;;301.92;276.52;;;;;;;18.24;31.93;92922.44;5028295;28;20472;-70
2022/04/06 06:38:29;;;;;;;295.35;270.45;;;;;;;18.23;31.94;92915.53;5032009;28;20044;-70
2022/04/06 06:40:55;;;;;;;291.88;266.88;;;;;;;18.22;31.91;92916.75;5036207;28;20065;-70
2022/04/06 06:43:21;;;;;;;302.75;277.27;;;;;;;18.22;31.95;92922.16;5030642;28;20049;-70
2022/04/06 06:45:47;;;;;;;302.98;277.20;;;;;;;18.22;32.15;92919.47;5023327;28;20053;-70
2022/04/06 06:48:12;;;;;;;295.48;270.05;;;;;;;18.22;32.00;92920.19;5027999;28;20057;-70
2022/04/06 06:50:38;;;;;;;294.73;269.33;;;;;;;18.23;31.83;92918.25;5023902;28;20461;-70
2022/04/06 06:53:04;;;;;;;296.65;271.75;;;;;;;18.23;31.81;92916.28;5030263;28;20045;-70
2022/04/06 06:55:29;;;;;;;306.45;280.85;;;;;;;18.23;31.88;92912.81;5027263;28;20053;-70
2022/04/06 06:57:54;;;;;;;299.58;274.13;;;;;;;18.24;31.84;92914.31;5029439;28;20060;-70
2022/04/06 07:00:20;;;;;;;305.55;280.25;;;;;;;18.23;32.01;92902.00;5030164;28;20045;-70
2022/04/06 07:02:46;;;;;;;290.80;265.58;;;;;;;18.23;31.71;92904.72;5028227;28;20516;-70
2022/04/06 07:05:11;;;;;;;304.00;278.48;;;;;;;18.21;31.77;92902.47;5028357;28;20057;-70
2022/04/06 07:07:58;;;;;;;300.73;275.27;;;;;;;18.22;31.82;92901.25;5010491;28;20046;-70
2022/04/06 07:10:25;;;;;;;314.45;286.65;;;;;;;18.27;31.83;92894.41;5024987;28;20052;-70
2022/04/06 07:12:52;;;;;;;310.35;283.45;;;;;;;18.25;31.80;92897.59;5025676;28;20036;-70
2022/04/06 07:15:18;;;;;;;301.42;276.13;;;;;;;18.25;31.89;92897.59;5024334;28;20060;-70
2022/04/06 07:17:43;;;;;;;298.20;273.08;;;;;;;18.24;31.99;92892.66;5024036;28;20046;-74
2022/04/06 07:20:10;;;;;;;313.45;286.80;;;;;;;18.24;31.90;92892.66;5021009;28;20121;-73
2022/04/06 07:22:36;;;;;;;303.45;277.58;;;;;;;18.22;31.81;92890.44;5017960;28;20130;-73
2022/04/06 07:25:03;;;;;;;306.02;279.63;;;;;;;18.25;31.83;92894.88;5029439;28;20144;-70
2022/04/06 07:27:36;;;;;;;310.42;284.15;;;;;;;18.24;31.81;92885.28;5027785;28;20041;-70
2022/04/06 07:30:07;;;;;;;296.08;270.67;;;;;;;18.15;31.92;92888.19;5024551;28;20487;-70
2022/04/06 07:32:34;;;;;;;299.77;273.85;;;;;;;18.13;32.23;92896.06;5023623;28;20048;-71
2022/04/06 07:35:00;;;;;;;314.23;287.17;;;;;;;18.14;32.20;92885.97;5032853;28;20045;-70
2022/04/06 07:37:25;;;;;;;300.85;275.40;;;;;;;18.05;32.23;92889.59;5018145;28;20049;-69
2022/04/06 07:39:51;;;;;;;307.98;282.05;;;;;;;18.05;32.36;92889.59;5024833;28;20130;-69
2022/04/06 07:42:16;;;;;;;299.55;274.30;;;;;;;17.99;32.77;92878.72;5027606;28;20061;-69
2022/04/06 07:44:42;;;;;;;299.15;273.52;;;;;;;18.02;32.79;92879.72;5027468;28;20084;-70
2022/04/06 07:47:07;;;;;;;297.02;271.77;;;;;;;18.04;32.81;92883.44;5028221;28;20061;-69
2022/04/06 07:49:33;;;;;;;296.10;271.02;;;;;;;18.06;32.61;92888.38;5028318;28;20045;-70
2022/04/06 07:51:59;;;;;;;304.20;279.05;;;;;;;18.07;32.81;92884.44;5028048;28;20454;-68
2022/04/06 07:54:24;;;;;;;293.52;268.38;;;;;;;18.10;32.67;92880.78;5020316;28;20061;-69
2022/04/06 07:56:50;;;;;;;314.27;287.88;;;;;;;18.12;32.50;92880.31;5024953;28;20644;-69
2022/04/06 07:59:15;;;;;;;307.77;281.33;;;;;;;18.12;32.50;92883.75;5016228;28;20053;-68
2022/04/06 08:01:41;;;;;;;302.30;277.13;;;;;;;18.13;32.44;92877.13;5025027;28;20452;-68
2022/04/06 08:04:06;;;;;;;297.23;271.90;;;;;;;18.14;32.24;92877.84;5030868;28;20085;-68
2022/04/06 08:06:32;;;;;;;305.27;279.75;;;;;;;18.15;32.26;92873.94;5027772;28;20099;-68
2022/04/06 08:08:59;;;;;;;292.17;266.88;;;;;;;18.15;32.46;92876.63;5025973;28;20496;-69
2022/04/06 08:11:25;;;;;;;297.50;272.02;;;;;;;18.14;32.26;92869.75;5018187;28;20053;-69
2022/04/06 08:13:50;;;;;;;308.67;282.90;;;;;;;18.16;32.25;92875.41;5013695;28;20049;-69
2022/04/06 08:16:16;;;;;;;297.70;272.38;;;;;;;18.16;32.42;92870.00;5025406;28;20485;-69
2022/04/06 08:18:42;;;;;;;310.45;284.13;;;;;;;18.16;32.42;92870.75;5025589;28;20095;-69
2022/04/06 08:21:09;;;;;;;316.17;289.35;;;;;;;18.18;32.28;92876.41;5015226;28;20053;-68
2022/04/06 08:23:36;;;;;;;313.60;286.55;;;;;;;18.18;32.12;92867.56;5017204;28;20042;-68
2022/04/06 08:26:02;;;;;;;303.25;277.45;;;;;;;18.20;32.23;92867.81;5019741;28;20142;-69
2022/04/06 08:28:28;;;;;;;294.80;269.63;;;;;;;18.21;32.15;92863.84;5023176;28;20122;-67
2022/04/06 08:30:53;;;;;;;300.88;275.23;;;;;;;18.20;32.24;92862.41;5024861;28;20045;-67
2022/04/06 08:33:19;;;;;;;306.35;280.65;;;;;;;18.19;32.30;92856.25;5025860;28;20058;-67
2022/04/06 08:35:44;;;;;;;303.60;278.15;;;;;;;18.20;32.34;92852.28;5026769;28;20053;-67
2022/04/06 08:38:15;;;;;;;314.60;288.30;;;;;;;18.22;32.09;92846.41;5026897;28;20374;-67
2022/04/06 08:40:42;;;;;;;304.25;278.52;;;;;;;18.23;32.28;92847.88;5031116;28;20041;-67
2022/04/06 08:43:09;;;;;;;305.98;280.58;;;;;;;18.23;32.21;92848.63;5027202;28;20049;-69
2022/04/06 08:45:37;;;;;;;290.63;265.77;;;;;;;18.25;32.05;92845.44;5015505;28;20046;-69
2022/04/06 08:48:06;;;;;;;304.65;279.23;;;;;;;18.26;31.93;92855.03;5022817;28;20421;-67
2022/04/06 08:50:32;;;;;;;307.88;282.08;;;;;;;18.26;31.87;92852.31;5022407;28;20159;-67
2022/04/06 08:52:59;;;;;;;299.67;274.70;;;;;;;18.27;32.12;92851.09;5025118;28;20590;-66
2022/04/06 08:55:24;;;;;;;309.63;283.90;;;;;;;18.28;32.13;92858.00;5026138;28;20631;-67
2022/04/06 08:57:50;;;;;;;309.40;283.65;;;;;;;18.28;32.18;92850.63;5028581;28;20038;-67
2022/04/06 09:00:18;;;;;;;304.52;279.33;;;;;;;18.28;31.91;92839.78;5026379;28;20171;-66
2022/04/06 09:02:45;;;;;;;304.33;278.42;;;;;;;18.28;32.02;92839.06;5024999;28;20060;-67
2022/04/06 09:05:11;;;;;;;308.35;282.60;;;;;;;18.29;31.91;92838.56;5026019;28;20124;-67
2022/04/06 09:07:39;;;;;;;309.95;284.17;;;;;;;18.26;32.23;92839.53;5030659;28;20053;-67
2022/04/06 09:10:05;;;;;;;296.65;271.17;;;;;;;18.23;32.16;92831.63;5025394;28;20161;-66
2022/04/06 09:12:30;;;;;;;314.90;288.98;;;;;;;18.27;32.17;92832.16;5027484;28;20069;-67
2022/04/06 09:15:10;;;;;;;319.10;291.80;;;;;;;18.26;32.08;92836.81;5026290;28;20114;-67
2022/04/06 09:17:46;;;;;;;307.10;281.45;;;;;;;18.25;32.21;92829.19;5029902;28;20049;-67
2022/04/06 09:20:14;;;;;;;299.52;274.10;;;;;;;18.22;32.14;92827.44;5023366;28;20085;-68
2022/04/06 09:22:40;;;;;;;314.55;288.73;;;;;;;18.23;32.18;92824.25;5019075;28;20045;-67
2022/04/06 09:25:06;;;;;;;323.77;296.38;;;;;;;18.20;32.28;92819.09;5024892;28;20549;-68
2022/04/06 09:27:32;;;;;;;310.58;284.95;;;;;;;18.18;32.33;92821.56;5026607;28;20099;-69
2022/04/06 09:30:05;;;;;;;302.38;277.00;;;;;;;18.20;32.47;92819.09;5025571;28;20045;-68
2022/04/06 09:32:31;;;;;;;309.00;283.10;;;;;;;18.21;32.21;92818.59;5026698;28;20049;-68
2022/04/06 09:34:57;;;;;;;314.00;286.98;;;;;;;18.17;32.49;92818.09;5023327;28;21545;-67
2022/04/06 09:37:26;;;;;;;306.35;280.60;;;;;;;18.17;32.47;92812.69;5020219;28;20041;-69
2022/04/06 09:39:52;;;;;;;304.23;278.75;;;;;;;18.21;32.30;92809.72;5021532;28;20056;-67
2022/04/06 09:42:23;;;;;;;308.77;283.00;;;;;;;18.18;32.48;92805.31;5024027;28;20060;-68
2022/04/06 09:47:42;;;;;;;313.58;287.58;;;;;;;18.12;32.77;92802.56;5008413;28;20041;-68
2022/04/06 09:50:22;;;;;;;305.60;279.95;;;;;;;18.16;32.56;92791.53;5024942;28;20056;-67
2022/04/06 09:52:51;;;;;;;306.95;280.95;;;;;;;18.17;32.31;92801.88;5028180;28;20431;-68
2022/04/06 09:55:18;;;;;;;316.02;289.48;;;;;;;18.20;32.47;92784.63;5022961;28;20052;-68
2022/04/06 09:57:45;;;;;;;317.90;291.38;;;;;;;18.22;32.52;92792.28;5021451;28;20053;-67
2022/04/06 10:00:17;;;;;;;310.88;284.90;;;;;;;18.17;32.67;92782.94;5032012;28;20094;-68
2022/04/06 10:02:54;;;;;;;310.60;284.33;;;;;;;18.11;32.62;92774.03;5022375;28;20094;-68
2022/04/06 10:05:21;;;;;;;308.48;282.48;;;;;;;18.09;32.71;92773.78;5025287;28;20129;-68
2022/04/06 10:07:51;;;;;;;312.55;286.23;;;;;;;18.05;32.84;92776.72;5043671;28;20045;-67
2022/04/06 10:10:17;;;;;;;307.52;281.60;;;;;;;18.07;32.84;92765.41;5019046;28;20045;-67
2022/04/06 10:12:43;;;;;;;316.88;290.02;;;;;;;18.06;32.73;92772.78;5022935;28;20041;-68
2022/04/06 10:15:10;;;;;;;320.63;293.02;;;;;;;18.09;32.75;92763.69;5010535;28;20635;-67
2022/04/06 10:17:36;;;;;;;315.63;289.38;;;;;;;18.07;32.77;92763.44;5017915;28;20042;-68
2022/04/06 10:20:19;;;;;;;324.05;297.10;;;;;;;18.08;32.66;92751.41;5018891;28;20049;-68
2022/04/06 10:23:10;;;;;;;310.40;283.88;;;;;;;18.14;32.65;92750.69;5038579;28;20471;-68
2022/04/06 10:25:38;;;;;;;316.70;290.63;;;;;;;18.15;32.77;92744.78;5021461;28;20041;-67
2022/04/06 10:28:11;;;;;;;306.00;280.50;;;;;;;18.15;32.80;92741.34;5025492;28;20124;-68
2022/04/06 10:30:36;;;;;;;315.15;289.17;;;;;;;18.15;32.89;92744.78;5020344;28;20055;-68
2022/04/06 10:33:18;;;;;;;321.63;295.13;;;;;;;18.12;32.90;92732.22;5027854;28;20073;-68
2022/04/06 10:35:43;;;;;;;313.00;286.60;;;;;;;18.06;33.10;92728.75;5019458;28;21455;-68
2022/04/06 10:38:09;;;;;;;324.40;297.48;;;;;;;18.06;33.16;92721.38;5024281;28;20065;-68
2022/04/06 10:40:43;;;;;;;312.77;287.08;;;;;;;18.07;33.12;92717.44;5027974;28;20103;-67
2022/04/06 10:43:34;;;;;;;321.25;294.38;;;;;;;18.16;32.98;92715.78;5025524;28;20578;-67
2022/04/06 10:46:00;;;;;;;320.50;293.92;;;;;;;18.19;32.88;92712.09;5019533;28;20045;-68
2022/04/06 10:48:26;;;;;;;308.08;282.15;;;;;;;18.16;32.99;92705.69;5024445;28;20053;-68
2022/04/06 10:50:53;;;;;;;318.50;292.02;;;;;;;18.20;32.75;92708.16;5023841;28;20048;-67
2022/04/06 10:53:18;;;;;;;321.70;294.23;;;;;;;18.22;32.67;92703.72;5023777;28;20594;-67
2022/04/06 10:56:06;;;;;;;319.25;293.08;;;;;;;18.26;32.90;92709.63;5023368;28;20037;-68
2022/04/06 10:58:50;;;;;;;317.67;291.20;;;;;;;18.27;32.91;92699.53;5019471;28;20084;-67
2022/04/06 11:01:17;;;;;;;319.98;293.13;;;;;;;18.27;32.87;92699.53;5017332;28;20060;-68
2022/04/06 11:04:04;;;;;;;316.95;290.63;;;;;;;18.28;32.77;92690.94;5017585;28;20061;-68
2022/04/06 11:06:48;;;;;;;306.48;280.70;;;;;;;18.24;32.87;92681.56;5018265;28;20147;-68
2022/04/06 11:12:34;;;;;;;313.27;286.75;;;;;;;18.22;32.90;92675.91;5024788;28;20049;-68